Time;durP1;ratioP1;P1;durP2;ratioP2;P2;SDS_P1;SDS_P2;PMS_P1;PMS_P2;Temp;Humidity;BMP_temperature;BMP_pressure;BME280_temperature;BME280_humidity;BME280_pressure;Samples;Min_cycle;Max_cycle;Signal;HPM_P1;HPM_P2
2022/11/29 00:02:13;;;;;;;;;;;;;;;7.67;60.16;101307.38;5040084;28;19968;-60
2022/11/29 00:04:38;;;;;;;;;;;;;;;7.55;60.33;101304.69;5041441;28;19924;-60
2022/11/29 00:07:03;;;;;;;;;;;;;;;7.36;60.79;101301.09;5045725;28;20344;-58
2022/11/29 00:09:28;;;;;;;;;;;;;;;7.35;60.81;101301.97;5049578;28;19925;-59
2022/11/29 00:12:12;;;;;;;;;;;;;;;7.28;61.08;101302.78;5047559;28;19925;-59
2022/11/29 00:14:37;;;;;;;;;;;;;;;7.41;60.73;101304.59;5047085;28;19925;-59
2022/11/29 00:17:03;;;;;;;;;;;;;;;7.43;60.64;101308.13;5049888;28;20020;-59
2022/11/29 00:19:29;;;;;;;;;;;;;;;7.51;60.92;101308.16;5044489;28;20392;-59
2022/11/29 00:21:54;;;;;;;;;;;;;;;7.45;60.66;101303.75;5037674;28;19925;-59
2022/11/29 00:24:19;;;;;;;;;;;;;;;7.50;60.65;101296.84;5043044;28;19920;-59
2022/11/29 00:26:45;;;;;;;;;;;;;;;7.62;60.45;101299.50;5047555;28;19932;-61
2022/11/29 00:29:11;;;;;;;;;;;;;;;7.72;60.38;101304.78;5046497;28;19921;-59
2022/11/29 00:31:37;;;;;;;;;;;;;;;7.71;60.41;101306.53;5043518;28;20022;-60
2022/11/29 00:34:03;;;;;;;;;;;;;;;7.74;60.27;101308.25;5037722;28;19929;-59
2022/11/29 00:36:28;;;;;;;;;;;;;;;7.86;60.22;101303.13;5049529;28;19920;-60
2022/11/29 00:38:54;;;;;;;;;;;;;;;7.85;60.31;101299.59;5046410;28;19948;-60
2022/11/29 00:41:19;;;;;;;;;;;;;;;7.78;60.14;101310.94;5040953;28;20001;-58
2022/11/29 00:43:44;;;;;;;;;;;;;;;7.71;60.72;101310.88;5047849;28;21522;-60
2022/11/29 00:46:10;;;;;;;;;;;;;;;7.78;60.08;101302.19;5046131;28;20015;-59
2022/11/29 00:48:35;;;;;;;;;;;;;;;7.85;60.13;101299.59;5040666;28;19925;-59
2022/11/29 00:51:01;;;;;;;;;;;;;;;7.86;59.41;101300.50;5041631;28;20452;-61
2022/11/29 00:53:26;;;;;;;;;;;;;;;7.96;59.53;101302.25;5052940;28;20408;-60
2022/11/29 00:55:52;;;;;;;;;;;;;;;7.97;58.95;101300.50;5049437;28;19995;-59
2022/11/29 00:58:17;;;;;;;;;;;;;;;7.98;58.79;101302.25;5039174;28;19964;-60
2022/11/29 01:00:43;;;;;;;;;;;;;;;8.07;59.18;101303.19;5041060;28;19929;-60
2022/11/29 01:03:08;;;;;;;;;;;;;;;8.14;58.28;101299.72;5039185;28;19925;-60
2022/11/29 01:05:33;;;;;;;;;;;;;;;8.16;58.14;101297.09;5039639;28;19921;-59
2022/11/29 01:07:59;;;;;;;;;;;;;;;8.11;58.53;101299.69;5039256;28;20430;-59
2022/11/29 01:10:24;;;;;;;;;;;;;;;8.04;58.59;101307.53;5048465;28;19928;-59
2022/11/29 01:12:49;;;;;;;;;;;;;;;8.06;58.54;101304.06;5051343;28;19936;-60
2022/11/29 01:15:15;;;;;;;;;;;;;;;8.06;58.37;101293.59;5044110;28;19932;-60
2022/11/29 01:17:40;;;;;;;;;;;;;;;8.09;58.45;101296.19;5047979;28;19921;-60
2022/11/29 01:20:06;;;;;;;;;;;;;;;7.98;58.60;101304.88;5042781;28;20372;-60
2022/11/29 01:22:33;;;;;;;;;;;;;;;7.88;58.88;101293.50;5045872;28;19935;-59
2022/11/29 01:24:58;;;;;;;;;;;;;;;7.93;58.86;101301.38;5040904;28;21438;-59
2022/11/29 01:27:23;;;;;;;;;;;;;;;7.95;58.69;101302.28;5040958;28;19925;-59
2022/11/29 01:29:48;;;;;;;;;;;;;;;7.94;59.46;101300.50;5045567;28;19983;-59
2022/11/29 01:32:14;;;;;;;;;;;;;;;7.89;58.58;101300.47;5038108;28;20292;-59
2022/11/29 01:34:39;;;;;;;;;;;;;;;7.93;58.22;101297.00;5047511;28;19959;-59
2022/11/29 01:37:04;;;;;;;;;;;;;;;7.96;58.90;101299.66;5047902;28;19927;-59
2022/11/29 01:39:30;;;;;;;;;;;;;;;7.87;58.55;101295.25;5050886;28;19927;-59
2022/11/29 01:41:55;;;;;;;;;;;;;;;7.88;58.28;101298.75;5049494;28;19921;-60
2022/11/29 01:44:20;;;;;;;;;;;;;;;7.80;58.76;101300.44;5041866;28;19925;-60
2022/11/29 01:46:46;;;;;;;;;;;;;;;7.64;58.73;101303.00;5038369;28;19921;-59
2022/11/29 01:49:21;;;;;;;;;;;;;;;7.67;58.57;101299.53;5041165;28;20307;-60
2022/11/29 01:51:49;;;;;;;;;;;;;;;7.78;58.66;101300.47;5045507;28;19998;-58
2022/11/29 01:54:15;;;;;;;;;;;;;;;7.86;58.46;101305.72;5050001;28;19928;-58
2022/11/29 01:56:42;;;;;;;;;;;;;;;7.89;58.28;101303.97;5042557;28;19929;-59
2022/11/29 01:59:13;;;;;;;;;;;;;;;7.97;57.90;101298.78;5043205;28;19921;-59
2022/11/29 02:01:38;;;;;;;;;;;;;;;7.96;57.58;101301.41;5042009;28;19956;-59
2022/11/29 02:04:04;;;;;;;;;;;;;;;7.81;57.61;101302.19;5052312;28;19983;-59
2022/11/29 02:06:30;;;;;;;;;;;;;;;7.82;57.59;101301.31;5048568;28;20400;-60
2022/11/29 02:08:55;;;;;;;;;;;;;;;7.81;57.36;101304.81;5048844;28;20438;-59
2022/11/29 02:11:23;;;;;;;;;;;;;;;7.82;57.50;101301.31;5036702;28;20360;-60
2022/11/29 02:13:55;;;;;;;;;;;;;;;7.83;57.81;101298.72;5045232;28;20146;-60
2022/11/29 02:16:20;;;;;;;;;;;;;;;7.75;57.58;101296.97;5044701;28;20018;-60
2022/11/29 02:18:51;;;;;;;;;;;;;;;7.75;57.72;101295.22;5036984;28;19947;-61
2022/11/29 02:21:23;;;;;;;;;;;;;;;7.67;57.85;101302.16;5046609;28;19924;-60
2022/11/29 02:24:03;;;;;;;;;;;;;;;7.64;58.35;101303.00;5035247;28;19921;-60
2022/11/29 02:26:47;;;;;;;;;;;;;;;7.64;58.07;101303.00;5037631;28;19921;-61
2022/11/29 02:29:21;;;;;;;;;;;;;;;7.64;57.20;101313.47;5036525;28;19928;-60
2022/11/29 02:32:06;;;;;;;;;;;;;;;7.71;57.47;101311.75;5036922;28;19999;-60
2022/11/29 02:34:52;;;;;;;;;;;;;;;7.53;57.13;101320.38;5038107;28;20269;-59
2022/11/29 02:37:36;;;;;;;;;;;;;;;7.62;57.44;101323.06;5037202;28;19936;-61
2022/11/29 02:40:21;;;;;;;;;;;;;;;7.51;57.46;101322.13;5048906;28;19920;-59
2022/11/29 02:42:50;;;;;;;;;;;;;;;7.58;57.46;101318.66;5041699;28;19956;-59
2022/11/29 02:45:21;;;;;;;;;;;;;;;7.60;58.52;101321.28;5047790;28;19917;-60
2022/11/29 02:47:46;;;;;;;;;;;;;;;7.69;57.56;101313.47;5048353;28;19921;-59
2022/11/29 02:50:30;;;;;;;;;;;;;;;7.69;56.30;101317.84;5050232;28;20342;-59
2022/11/29 02:53:14;;;;;;;;;;;;;;;7.78;55.99;101316.16;5036686;28;19989;-60
2022/11/29 02:55:52;;;;;;;;;;;;;;;7.58;56.05;101323.91;5039756;28;19971;-60
2022/11/29 02:58:33;;;;;;;;;;;;;;;7.72;56.10;101326.56;5043749;28;19921;-58
2022/11/29 03:01:08;;;;;;;;;;;;;;;7.67;56.14;101319.59;5034213;28;19965;-58
2022/11/29 03:03:43;;;;;;;;;;;;;;;7.65;55.99;101320.44;5034359;28;19986;-59
2022/11/29 03:06:08;;;;;;;;;;;;;;;7.53;56.39;101330.81;5034769;28;19921;-58
2022/11/29 03:08:43;;;;;;;;;;;;;;;7.41;56.43;101325.53;5034391;28;19924;-58
2022/11/29 03:11:09;;;;;;;;;;;;;;;7.41;56.60;101317.69;5037157;28;20312;-58
2022/11/29 03:13:37;;;;;;;;;;;;;;;7.40;56.54;101318.56;5033720;28;19917;-58
2022/11/29 03:16:15;;;;;;;;;;;;;;;7.28;56.51;101327.19;5034321;28;19921;-59
2022/11/29 03:18:47;;;;;;;;;;;;;;;7.22;56.57;101328.88;5034382;28;19917;-58
2022/11/29 03:21:39;;;;;;;;;;;;;;;7.35;56.80;101326.38;5047294;28;19952;-59
2022/11/29 03:24:08;;;;;;;;;;;;;;;7.21;56.71;101325.38;5042381;28;20445;-59
2022/11/29 03:26:52;;;;;;;;;;;;;;;7.26;57.15;101325.41;5039209;28;19932;-59
2022/11/29 03:29:20;;;;;;;;;;;;;;;7.11;56.91;101324.47;5050064;28;19928;-59
2022/11/29 03:31:51;;;;;;;;;;;;;;;7.27;56.49;101327.19;5040103;28;19917;-61
2022/11/29 03:34:35;;;;;;;;;;;;;;;7.28;56.54;101328.94;5033697;28;19921;-60
2022/11/29 03:37:05;;;;;;;;;;;;;;;7.34;56.26;101329.84;5047174;28;19925;-59
2022/11/29 03:39:42;;;;;;;;;;;;;;;7.33;56.61;101329.81;5051535;28;19917;-60
2022/11/29 03:42:15;;;;;;;;;;;;;;;7.37;56.61;101334.22;5034140;28;20369;-60
2022/11/29 03:44:47;;;;;;;;;;;;;;;7.35;57.58;101330.72;5053768;28;19922;-60
2022/11/29 03:47:20;;;;;;;;;;;;;;;7.41;56.25;101330.75;5051626;28;19952;-59
2022/11/29 03:49:57;;;;;;;;;;;;;;;7.46;56.22;101328.16;5054296;28;19916;-60
2022/11/29 03:52:27;;;;;;;;;;;;;;;7.44;56.41;101333.41;5051980;28;19935;-60
2022/11/29 03:54:53;;;;;;;;;;;;;;;7.49;56.95;101328.19;5053702;28;20119;-60
2022/11/29 03:57:23;;;;;;;;;;;;;;;7.52;56.30;101329.09;5052182;28;19924;-60
2022/11/29 04:00:00;;;;;;;;;;;;;;;7.48;56.90;101334.28;5053082;28;19964;-60
2022/11/29 04:02:39;;;;;;;;;;;;;;;7.48;56.64;101339.53;5042198;28;20016;-60
2022/11/29 04:05:17;;;;;;;;;;;;;;;7.32;57.10;101342.03;5043919;28;19958;-60
2022/11/29 04:07:46;;;;;;;;;;;;;;;7.36;56.76;101345.53;5043056;28;19921;-59
2022/11/29 04:10:21;;;;;;;;;;;;;;;7.32;57.11;101351.63;5052794;28;19921;-59
2022/11/29 04:12:46;;;;;;;;;;;;;;;7.34;57.22;101352.47;5043578;28;19964;-60
2022/11/29 04:15:17;;;;;;;;;;;;;;;7.30;57.27;101353.31;5038303;28;19972;-60
2022/11/29 04:18:05;;;;;;;;;;;;;;;7.20;57.26;101349.78;5039132;28;19925;-59
2022/11/29 04:20:49;;;;;;;;;;;;;;;7.24;57.25;101350.69;5036112;28;19917;-59
2022/11/29 04:23:32;;;;;;;;;;;;;;;7.16;57.47;101354.09;5040421;28;19959;-59
2022/11/29 04:25:57;;;;;;;;;;;;;;;7.32;57.61;101357.72;5043717;28;19928;-60
2022/11/29 04:28:22;;;;;;;;;;;;;;;7.31;56.98;101361.19;5050564;28;19921;-59
2022/11/29 04:31:06;;;;;;;;;;;;;;;7.36;57.32;101364.72;5048855;28;19925;-59
2022/11/29 04:33:51;;;;;;;;;;;;;;;7.31;57.72;101357.72;5044553;28;19921;-60
2022/11/29 04:36:32;;;;;;;;;;;;;;;7.29;57.23;101370.75;5042289;28;20303;-59
2022/11/29 04:38:57;;;;;;;;;;;;;;;7.26;57.06;101359.41;5053004;28;19916;-59
2022/11/29 04:41:35;;;;;;;;;;;;;;;7.16;57.21;101367.19;5044961;28;20418;-59
2022/11/29 04:44:00;;;;;;;;;;;;;;;7.12;57.19;101365.41;5048845;28;20320;-59
2022/11/29 04:46:25;;;;;;;;;;;;;;;7.24;57.16;101366.38;5044931;28;20036;-60
2022/11/29 04:48:59;;;;;;;;;;;;;;;7.30;57.26;101364.69;5052936;28;20331;-59
2022/11/29 04:51:25;;;;;;;;;;;;;;;7.31;57.31;101370.78;5040894;28;19921;-60
2022/11/29 04:54:09;;;;;;;;;;;;;;;7.06;56.96;101362.75;5040120;28;20012;-60
2022/11/29 04:56:34;;;;;;;;;;;;;;;7.11;57.43;101368.03;5039024;28;20063;-59
2022/11/29 04:59:14;;;;;;;;;;;;;;;7.09;57.22;101369.72;5039448;28;20012;-59
2022/11/29 05:01:42;;;;;;;;;;;;;;;7.04;57.77;101376.66;5040159;28;20392;-59
2022/11/29 05:04:26;;;;;;;;;;;;;;;7.04;57.17;101379.28;5045218;28;20387;-59
2022/11/29 05:07:05;;;;;;;;;;;;;;;7.03;57.98;101377.53;5035615;28;20396;-59
2022/11/29 05:09:45;;;;;;;;;;;;;;;7.06;57.28;101378.44;5039725;28;19921;-59
2022/11/29 05:12:25;;;;;;;;;;;;;;;7.05;57.64;101379.28;5038558;28;19968;-59
2022/11/29 05:14:56;;;;;;;;;;;;;;;7.02;57.16;101387.13;5039955;28;20365;-59
2022/11/29 05:17:41;;;;;;;;;;;;;;;6.98;57.25;101382.72;5039331;28;19928;-58
2022/11/29 05:20:13;;;;;;;;;;;;;;;6.99;57.48;101387.06;5038004;28;19943;-59
2022/11/29 05:22:52;;;;;;;;;;;;;;;7.15;56.85;101381.13;5039374;28;19920;-59
2022/11/29 05:25:17;;;;;;;;;;;;;;;7.20;56.74;101378.53;5045450;28;19924;-59
2022/11/29 05:27:56;;;;;;;;;;;;;;;7.08;56.80;101389.75;5037101;28;20384;-60
2022/11/29 05:30:23;;;;;;;;;;;;;;;7.03;56.97;101396.69;5036541;28;19921;-59
2022/11/29 05:32:48;;;;;;;;;;;;;;;7.09;57.15;101394.13;5040711;28;19929;-60
2022/11/29 05:35:22;;;;;;;;;;;;;;;7.03;56.97;101396.69;5036315;28;19976;-59
2022/11/29 05:37:50;;;;;;;;;;;;;;;7.11;56.69;101399.38;5045482;28;20317;-59
2022/11/29 05:40:35;;;;;;;;;;;;;;;6.87;57.25;101402.66;5052561;28;20002;-60
2022/11/29 05:43:16;;;;;;;;;;;;;;;7.03;57.33;101407.16;5049130;28;19917;-59
2022/11/29 05:45:49;;;;;;;;;;;;;;;6.91;57.24;101404.44;5045875;28;19967;-59
2022/11/29 05:48:43;;;;;;;;;;;;;;;7.06;57.30;101409.81;5042106;28;19917;-59
2022/11/29 05:51:12;;;;;;;;;;;;;;;7.10;56.86;101411.56;5034101;28;19937;-59
2022/11/29 05:53:57;;;;;;;;;;;;;;;7.11;57.38;101415.94;5039406;28;19990;-59
2022/11/29 05:56:38;;;;;;;;;;;;;;;7.11;56.73;101417.69;5037705;28;19928;-61
2022/11/29 05:59:15;;;;;;;;;;;;;;;7.13;56.78;101411.56;5038479;28;19921;-59
2022/11/29 06:01:40;;;;;;;;;;;;;;;7.11;57.27;101418.56;5040457;28;20016;-59
2022/11/29 06:04:15;;;;;;;;;;;;;;;7.09;56.84;101422.00;5039723;28;20016;-60
2022/11/29 06:06:54;;;;;;;;;;;;;;;7.15;56.63;101415.09;5046135;28;20016;-58
2022/11/29 06:09:26;;;;;;;;;;;;;;;7.16;56.72;101419.47;5056104;28;19917;-59
2022/11/29 06:12:01;;;;;;;;;;;;;;;7.11;57.10;101418.56;5037416;28;19921;-58
2022/11/29 06:14:32;;;;;;;;;;;;;;;7.04;57.06;101411.50;5038299;28;20024;-60
2022/11/29 06:17:17;;;;;;;;;;;;;;;7.06;57.15;101414.13;5038715;28;19936;-59
2022/11/29 06:19:45;;;;;;;;;;;;;;;7.05;57.44;101421.09;5037294;28;19928;-58
2022/11/29 06:22:10;;;;;;;;;;;;;;;7.05;57.17;101425.44;5041872;28;19922;-61
2022/11/29 06:24:36;;;;;;;;;;;;;;;7.07;57.08;101428.97;5043669;28;19921;-59
2022/11/29 06:27:10;;;;;;;;;;;;;;;7.07;57.50;101435.06;5036524;28;19921;-59
2022/11/29 06:29:46;;;;;;;;;;;;;;;7.04;57.26;101435.03;5040219;28;20006;-60
2022/11/29 06:32:33;;;;;;;;;;;;;;;7.07;57.22;101428.97;5055406;28;19917;-60
2022/11/29 06:35:03;;;;;;;;;;;;;;;6.95;57.89;101437.56;5053362;28;19928;-60
2022/11/29 06:37:32;;;;;;;;;;;;;;;6.99;57.68;101430.63;5055173;28;19917;-60
2022/11/29 06:39:58;;;;;;;;;;;;;;;7.05;57.24;101431.53;5040439;28;19921;-58
2022/11/29 06:42:23;;;;;;;;;;;;;;;7.09;57.20;101430.72;5035458;28;19928;-60
2022/11/29 06:44:48;;;;;;;;;;;;;;;7.06;57.57;101433.31;5034243;28;20320;-60
2022/11/29 06:47:36;;;;;;;;;;;;;;;7.00;57.37;101441.09;5035103;28;19948;-60
2022/11/29 06:50:13;;;;;;;;;;;;;;;7.06;57.09;101438.53;5043794;28;20011;-61
2022/11/29 06:52:42;;;;;;;;;;;;;;;7.11;57.07;101442.06;5042299;28;19931;-60
2022/11/29 06:55:10;;;;;;;;;;;;;;;7.14;57.22;101438.59;5034993;28;20369;-60
2022/11/29 06:57:54;;;;;;;;;;;;;;;7.14;56.96;101451.66;5034924;28;19925;-60
2022/11/29 07:00:22;;;;;;;;;;;;;;;7.20;57.19;101450.84;5034900;28;19921;-60
2022/11/29 07:02:53;;;;;;;;;;;;;;;7.18;57.09;101444.72;5034940;28;19918;-61
2022/11/29 07:05:19;;;;;;;;;;;;;;;7.06;56.95;101443.78;5036805;28;19979;-61
2022/11/29 07:07:45;;;;;;;;;;;;;;;6.99;57.43;101449.78;5048290;28;20380;-60
2022/11/29 07:10:17;;;;;;;;;;;;;;;6.98;58.29;101449.75;5039080;28;19971;-61
2022/11/29 07:12:47;;;;;;;;;;;;;;;7.02;57.52;101451.53;5034315;28;20017;-61
2022/11/29 07:15:14;;;;;;;;;;;;;;;7.02;57.07;101451.53;5049306;28;19921;-60
2022/11/29 07:17:42;;;;;;;;;;;;;;;7.05;57.24;101455.06;5038302;28;20436;-59
2022/11/29 07:20:25;;;;;;;;;;;;;;;6.94;57.58;101461.91;5041309;28;19952;-60
2022/11/29 07:23:01;;;;;;;;;;;;;;;7.05;57.20;101462.03;5036440;28;20395;-60
2022/11/29 07:25:42;;;;;;;;;;;;;;;6.98;57.34;101463.72;5041053;28;19928;-62
2022/11/29 07:28:16;;;;;;;;;;;;;;;7.01;57.48;101460.25;5042647;28;20398;-61
2022/11/29 07:31:01;;;;;;;;;;;;;;;7.03;57.62;101462.03;5036016;28;19979;-60
2022/11/29 07:33:32;;;;;;;;;;;;;;;7.04;57.42;101460.28;5041546;28;19962;-60
2022/11/29 07:36:00;;;;;;;;;;;;;;;7.08;57.22;101469.91;5054090;28;20304;-59
2022/11/29 07:38:45;;;;;;;;;;;;;;;7.08;57.50;101455.09;5054152;28;19956;-60
2022/11/29 07:41:22;;;;;;;;;;;;;;;7.02;57.14;101470.75;5054185;28;20009;-59
2022/11/29 07:44:04;;;;;;;;;;;;;;;7.06;57.20;101464.69;5054254;28;20457;-59
2022/11/29 07:46:29;;;;;;;;;;;;;;;7.12;57.18;101461.25;5054230;28;19920;-60
2022/11/29 07:48:54;;;;;;;;;;;;;;;7.03;57.02;101475.09;5054437;28;19920;-60
2022/11/29 07:51:20;;;;;;;;;;;;;;;7.09;57.20;101474.28;5048578;28;20341;-59
2022/11/29 07:53:45;;;;;;;;;;;;;;;7.14;57.19;101465.63;5050921;28;19956;-60
2022/11/29 07:56:15;;;;;;;;;;;;;;;7.09;58.05;101469.91;5041324;28;19921;-60
2022/11/29 07:58:40;;;;;;;;;;;;;;;7.18;56.63;101466.50;5072614;28;19924;-60
2022/11/29 08:01:06;;;;;;;;;;;;;;;7.26;56.63;101471.81;5058412;28;19917;-59
2022/11/29 08:03:32;;;;;;;;;;;;;;;7.14;56.93;101470.84;5053915;28;19924;-59
2022/11/29 08:05:57;;;;;;;;;;;;;;;7.18;57.93;101468.25;5053703;28;20292;-60
2022/11/29 08:08:23;;;;;;;;;;;;;;;7.18;56.76;101463.03;5065226;28;19928;-60
2022/11/29 08:10:48;;;;;;;;;;;;;;;7.18;56.66;101468.25;5073687;28;19999;-60
2022/11/29 08:13:13;;;;;;;;;;;;;;;7.24;56.39;101468.31;5057808;28;19929;-60
2022/11/29 08:15:43;;;;;;;;;;;;;;;7.30;56.35;101469.25;5056413;28;20299;-60
2022/11/29 08:18:08;;;;;;;;;;;;;;;7.25;56.20;101475.28;5062490;28;20014;-60
2022/11/29 08:20:34;;;;;;;;;;;;;;;7.34;56.63;101470.13;5052493;28;19928;-59
2022/11/29 08:22:59;;;;;;;;;;;;;;;7.37;56.22;101476.28;5048696;28;19928;-60
2022/11/29 08:25:25;;;;;;;;;;;;;;;7.28;56.52;101470.97;5049874;28;19921;-61
2022/11/29 08:27:53;;;;;;;;;;;;;;;7.25;57.31;101470.94;5049750;28;19921;-60
2022/11/29 08:30:21;;;;;;;;;;;;;;;7.18;56.51;101463.03;5038312;28;19929;-60
2022/11/29 08:32:46;;;;;;;;;;;;;;;7.28;56.63;101475.31;5041674;28;19960;-59
2022/11/29 08:35:11;;;;;;;;;;;;;;;7.23;56.91;101477.03;5043262;28;19964;-60
2022/11/29 08:37:36;;;;;;;;;;;;;;;7.20;56.64;101472.63;5043034;28;19925;-60
2022/11/29 08:40:03;;;;;;;;;;;;;;;7.05;56.88;101473.34;5046108;28;19971;-62
2022/11/29 08:42:28;;;;;;;;;;;;;;;7.18;57.50;101469.13;5042034;28;19921;-60
2022/11/29 08:44:54;;;;;;;;;;;;;;;7.20;56.80;101471.78;5053677;28;19928;-60
2022/11/29 08:47:34;;;;;;;;;;;;;;;7.04;56.56;101474.22;5041403;28;20301;-60
2022/11/29 08:50:00;;;;;;;;;;;;;;;7.25;56.58;101472.69;5045443;28;19931;-60
2022/11/29 08:55:10;;;;;;;;;;;;;;;7.26;56.49;101469.19;5038838;28;19939;-61
2022/11/29 08:57:35;;;;;;;;;;;;;;;7.21;56.27;101473.50;5036413;28;20007;-58
2022/11/29 09:00:00;;;;;;;;;;;;;;;7.22;56.45;101480.47;5035921;28;19971;-60
2022/11/29 09:02:26;;;;;;;;;;;;;;;7.25;56.72;101472.69;5036265;28;20008;-60
2022/11/29 09:04:51;;;;;;;;;;;;;;;7.32;56.49;101467.53;5037564;28;19979;-60
2022/11/29 09:07:16;;;;;;;;;;;;;;;7.26;56.33;101472.72;5046746;28;20277;-63
2022/11/29 09:09:41;;;;;;;;;;;;;;;7.24;56.43;101469.19;5042862;28;19925;-60
2022/11/29 09:12:07;;;;;;;;;;;;;;;7.33;56.51;101471.00;5043751;28;19983;-61
2022/11/29 09:14:32;;;;;;;;;;;;;;;7.18;56.90;101468.25;5053555;28;19932;-60
2022/11/29 09:16:58;;;;;;;;;;;;;;;7.30;56.10;101470.97;5043451;28;19928;-61
2022/11/29 09:19:23;;;;;;;;;;;;;;;7.27;56.30;101468.34;5045619;28;20074;-61
2022/11/29 09:21:48;;;;;;;;;;;;;;;7.39;56.22;101478.94;5056501;28;19921;-61
2022/11/29 09:24:14;;;;;;;;;;;;;;;7.48;56.42;101468.53;5044525;28;19928;-60
2022/11/29 09:26:41;;;;;;;;;;;;;;;7.35;55.94;101471.91;5036536;28;20282;-61
2022/11/29 09:29:06;;;;;;;;;;;;;;;7.40;55.94;101467.59;5036663;28;19975;-60
2022/11/29 09:31:33;;;;;;;;;;;;;;;7.53;55.99;101472.06;5036426;28;19921;-60
2022/11/29 09:33:58;;;;;;;;;;;;;;;7.41;55.75;101467.59;5036312;28;20384;-61
2022/11/29 09:36:24;;;;;;;;;;;;;;;7.46;55.74;101472.00;5047976;28;19956;-62
2022/11/29 09:38:49;;;;;;;;;;;;;;;7.30;55.58;101476.19;5067558;28;19924;-61
2022/11/29 09:41:14;;;;;;;;;;;;;;;7.36;55.76;101471.91;5067241;28;19956;-59
2022/11/29 09:43:39;;;;;;;;;;;;;;;7.37;55.69;101470.16;5047380;28;19921;-59
2022/11/29 09:46:14;;;;;;;;;;;;;;;7.28;56.09;101465.75;5040644;28;20015;-60
2022/11/29 09:48:40;;;;;;;;;;;;;;;7.31;56.01;101468.41;5044525;28;19921;-60
2022/11/29 09:51:24;;;;;;;;;;;;;;;7.40;56.10;101465.84;5043867;28;19974;-60
2022/11/29 09:54:07;;;;;;;;;;;;;;;7.52;55.98;101467.69;5051253;28;19963;-60
2022/11/29 09:56:41;;;;;;;;;;;;;;;7.40;56.02;101470.22;5049285;28;20390;-60
2022/11/29 09:59:09;;;;;;;;;;;;;;;7.51;55.81;101468.56;5038143;28;20303;-60
2022/11/29 10:01:37;;;;;;;;;;;;;;;7.47;55.84;101472.03;5039119;28;19952;-60
2022/11/29 10:04:07;;;;;;;;;;;;;;;7.43;55.70;101467.63;5037477;28;19921;-60
2022/11/29 10:06:39;;;;;;;;;;;;;;;7.46;55.52;101475.50;5038907;28;19928;-59
2022/11/29 10:09:15;;;;;;;;;;;;;;;7.48;55.72;101479.00;5037945;28;19947;-60
2022/11/29 10:11:46;;;;;;;;;;;;;;;7.57;55.36;101467.72;5042287;28;19925;-61
2022/11/29 10:14:15;;;;;;;;;;;;;;;7.53;55.50;101482.50;5041699;28;19921;-60
2022/11/29 10:16:43;;;;;;;;;;;;;;;7.55;55.43;101464.25;5050653;28;19967;-61
2022/11/29 10:19:28;;;;;;;;;;;;;;;7.62;55.44;101469.53;5051028;28;19928;-60
2022/11/29 10:22:02;;;;;;;;;;;;;;;7.61;55.45;101470.38;5044292;28;19921;-61
2022/11/29 10:24:28;;;;;;;;;;;;;;;7.54;55.39;101465.06;5037289;28;19921;-60
2022/11/29 10:26:53;;;;;;;;;;;;;;;7.64;55.46;101469.53;5038476;28;19928;-60
2022/11/29 10:29:19;;;;;;;;;;;;;;;7.70;55.55;101476.53;5045345;28;20407;-60
2022/11/29 10:31:48;;;;;;;;;;;;;;;7.63;55.71;101478.25;5042047;28;20023;-59
2022/11/29 10:34:17;;;;;;;;;;;;;;;7.61;55.41;101473.00;5039068;28;19928;-61
2022/11/29 10:36:42;;;;;;;;;;;;;;;7.45;55.83;101478.09;5037998;28;20393;-61
2022/11/29 10:39:36;;;;;;;;;;;;;;;7.61;55.53;101480.84;5037921;28;20006;-61
2022/11/29 10:42:02;;;;;;;;;;;;;;;7.62;55.37;101477.38;5035898;28;20376;-60
2022/11/29 10:44:27;;;;;;;;;;;;;;;7.62;57.02;101480.00;5037905;28;19921;-60
2022/11/29 10:46:54;;;;;;;;;;;;;;;7.67;55.25;101479.16;5039968;28;19921;-60
2022/11/29 10:49:22;;;;;;;;;;;;;;;7.56;55.30;101476.44;5054941;28;19928;-61
2022/11/29 10:51:47;;;;;;;;;;;;;;;7.45;55.87;101493.78;5042755;28;19925;-60
2022/11/29 10:54:33;;;;;;;;;;;;;;;7.54;55.54;101483.38;5045693;28;19931;-60
2022/11/29 10:56:59;;;;;;;;;;;;;;;7.41;55.78;101496.34;5049888;28;20465;-62
2022/11/29 10:59:25;;;;;;;;;;;;;;;7.45;56.09;101492.03;5051539;28;19936;-59
2022/11/29 11:01:51;;;;;;;;;;;;;;;7.49;56.22;101488.59;5043824;28;20019;-59
2022/11/29 11:04:27;;;;;;;;;;;;;;;7.63;55.55;101489.59;5052072;28;20035;-60
2022/11/29 11:06:57;;;;;;;;;;;;;;;7.56;55.44;101492.13;5044402;28;19921;-60
2022/11/29 11:09:35;;;;;;;;;;;;;;;7.41;55.82;101498.09;5044418;28;20322;-60
2022/11/29 11:12:02;;;;;;;;;;;;;;;7.59;55.50;101497.41;5037366;28;20373;-59
2022/11/29 11:14:30;;;;;;;;;;;;;;;7.57;55.41;101497.38;5046688;28;19974;-61
2022/11/29 11:17:12;;;;;;;;;;;;;;;7.61;55.73;101501.75;5046659;28;20269;-60
2022/11/29 11:19:37;;;;;;;;;;;;;;;7.57;55.50;101497.38;5045683;28;19921;-59
2022/11/29 11:22:03;;;;;;;;;;;;;;;7.65;55.31;101498.31;5051173;28;20411;-61
2022/11/29 11:24:28;;;;;;;;;;;;;;;7.64;55.27;101507.03;5037574;28;20292;-61
2022/11/29 11:26:54;;;;;;;;;;;;;;;7.61;55.64;101493.91;5041833;28;19958;-60
2022/11/29 11:29:21;;;;;;;;;;;;;;;7.58;55.96;101496.53;5049744;28;19932;-61
2022/11/29 11:31:54;;;;;;;;;;;;;;;7.65;55.80;101494.81;5046362;28;19921;-61
2022/11/29 11:34:32;;;;;;;;;;;;;;;7.57;55.66;101486.91;5039991;28;19960;-60
2022/11/29 11:37:13;;;;;;;;;;;;;;;7.63;55.96;101496.56;5043507;28;20252;-61
2022/11/29 11:39:39;;;;;;;;;;;;;;;7.65;55.72;101495.69;5039157;28;19925;-60
2022/11/29 11:44:51;;;;;;;;;;;;;;;7.82;55.36;101492.31;5045089;28;19948;-61
2022/11/29 11:47:26;;;;;;;;;;;;;;;7.86;55.19;101495.00;5053260;28;19921;-61
2022/11/29 11:49:53;;;;;;;;;;;;;;;7.95;55.52;101495.94;5032441;28;20360;-61
2022/11/29 11:52:21;;;;;;;;;;;;;;;7.91;55.14;101492.41;5033950;28;19979;-61
2022/11/29 11:54:52;;;;;;;;;;;;;;;7.89;55.25;101496.75;5033148;28;21318;-61
2022/11/29 11:57:17;;;;;;;;;;;;;;;7.78;55.92;101498.41;5040171;28;19921;-61
2022/11/29 11:59:46;;;;;;;;;;;;;;;7.76;55.38;101497.53;5037054;28;19921;-60
2022/11/29 12:02:32;;;;;;;;;;;;;;;7.89;55.21;101497.63;5051255;28;19921;-60
2022/11/29 12:04:59;;;;;;;;;;;;;;;7.58;55.25;101503.47;5039935;28;19982;-60
2022/11/29 12:07:31;;;;;;;;;;;;;;;7.59;55.33;101506.13;5045618;28;19925;-60
2022/11/29 12:10:00;;;;;;;;;;;;;;;7.49;55.83;101506.88;5037970;28;20385;-59
2022/11/29 12:12:28;;;;;;;;;;;;;;;7.69;55.66;101508.81;5048895;28;19921;-60
2022/11/29 12:15:07;;;;;;;;;;;;;;;7.71;56.14;101507.97;5035633;28;20780;-60
2022/11/29 12:17:35;;;;;;;;;;;;;;;7.70;55.37;101511.44;5038338;28;20020;-61
2022/11/29 12:20:03;;;;;;;;;;;;;;;7.68;55.22;101507.06;5047127;28;20355;-61
2022/11/29 12:22:32;;;;;;;;;;;;;;;7.56;55.61;101506.09;5034638;28;20011;-60
2022/11/29 12:25:00;;;;;;;;;;;;;;;7.69;55.78;101511.41;5036755;28;19964;-60
2022/11/29 12:27:26;;;;;;;;;;;;;;;7.58;55.59;101507.00;5045577;28;19928;-60
2022/11/29 12:29:51;;;;;;;;;;;;;;;7.48;55.69;101513.00;5048593;28;19924;-61
2022/11/29 12:32:28;;;;;;;;;;;;;;;7.62;55.40;101523.56;5044097;28;19928;-60
2022/11/29 12:34:53;;;;;;;;;;;;;;;7.49;55.27;101519.97;5048366;28;19930;-61
2022/11/29 12:37:31;;;;;;;;;;;;;;;7.50;55.42;101521.75;5037414;28;19921;-61
2022/11/29 12:39:56;;;;;;;;;;;;;;;7.53;55.50;101519.13;5035436;28;20380;-60
2022/11/29 12:42:24;;;;;;;;;;;;;;;7.54;55.79;101522.63;5036239;28;20012;-62
2022/11/29 12:44:55;;;;;;;;;;;;;;;7.41;55.69;101519.91;5035862;28;19976;-60
2022/11/29 12:47:39;;;;;;;;;;;;;;;7.39;55.92;101520.75;5038407;28;20019;-61
2022/11/29 12:50:28;;;;;;;;;;;;;;;7.45;55.98;101526.03;5039328;28;20399;-61
2022/11/29 12:53:12;;;;;;;;;;;;;;;7.39;56.04;101533.84;5048485;28;19983;-61
2022/11/29 12:55:38;;;;;;;;;;;;;;;7.37;55.85;101532.94;5042469;28;20372;-61
2022/11/29 12:58:18;;;;;;;;;;;;;;;7.47;56.13;101523.44;5047947;28;20009;-61
2022/11/29 13:00:55;;;;;;;;;;;;;;;7.48;55.90;101525.19;5052578;28;19921;-60
2022/11/29 13:03:32;;;;;;;;;;;;;;;7.41;55.87;101529.47;5038749;28;19921;-60
2022/11/29 13:06:00;;;;;;;;;;;;;;;7.46;56.04;101532.13;5045127;28;19928;-59
2022/11/29 13:08:46;;;;;;;;;;;;;;;7.50;55.80;101532.22;5042130;28;19925;-61
2022/11/29 13:11:15;;;;;;;;;;;;;;;7.43;55.45;101535.63;5040380;28;19921;-62
2022/11/29 13:13:40;;;;;;;;;;;;;;;7.48;55.98;101533.03;5046071;28;19927;-61